createdAt,value
2023-02-05T00:02:00.897Z,37.70
2023-02-05T00:04:30.672Z,37.60
2023-02-05T00:06:58.884Z,37.69
2023-02-05T00:09:28.556Z,37.53
2023-02-05T00:11:56.809Z,37.53
2023-02-05T00:14:25.350Z,38.28
2023-02-05T00:16:53.796Z,38.21
2023-02-05T00:19:22.219Z,37.83
2023-02-05T00:21:51.907Z,37.77
2023-02-05T00:24:20.274Z,37.76
2023-02-05T00:26:48.534Z,37.78
2023-02-05T00:29:16.757Z,37.88
2023-02-05T00:31:45.189Z,38.03
2023-02-05T00:34:13.664Z,37.44
2023-02-05T00:36:41.938Z,37.56
2023-02-05T00:39:14.358Z,37.87
2023-02-05T00:41:42.616Z,37.97
2023-02-05T00:44:10.872Z,37.90
2023-02-05T00:46:39.395Z,37.30
2023-02-05T00:49:08.293Z,37.71
2023-02-05T00:51:36.473Z,37.59
2023-02-05T00:54:04.853Z,37.54
2023-02-05T00:56:34.624Z,37.84
2023-02-05T00:59:03.273Z,37.32
2023-02-05T01:01:31.828Z,37.28
2023-02-05T01:04:00.213Z,37.25
2023-02-05T01:06:28.461Z,37.48
2023-02-05T01:08:57.065Z,37.59
2023-02-05T01:11:25.532Z,37.29
2023-02-05T01:13:55.162Z,37.13
2023-02-05T01:16:23.494Z,37.31
2023-02-05T01:18:53.180Z,37.03
2023-02-05T01:21:21.499Z,37.79
2023-02-05T01:23:49.976Z,37.35
2023-02-05T01:26:18.382Z,37.65
2023-02-05T01:28:47.204Z,37.33
2023-02-05T01:31:17.288Z,36.77
2023-02-05T01:33:45.789Z,37.00
2023-02-05T01:36:14.178Z,37.29
2023-02-05T01:38:42.527Z,37.37
2023-02-05T01:41:12.354Z,36.91
2023-02-05T01:43:40.769Z,37.01
2023-02-05T01:46:25.625Z,36.55
2023-02-05T01:48:55.092Z,36.40
2023-02-05T01:51:23.218Z,36.87
2023-02-05T01:53:51.335Z,36.36
2023-02-05T01:56:22.292Z,36.28
2023-02-05T01:58:52.760Z,36.25
2023-02-05T02:01:20.959Z,36.65
2023-02-05T02:03:50.870Z,36.50
2023-02-05T02:06:19.109Z,36.05
2023-02-05T02:08:47.238Z,36.14
2023-02-05T02:11:17.247Z,36.69
2023-02-05T02:13:45.678Z,36.82
2023-02-05T02:16:13.804Z,36.73
2023-02-05T02:18:42.388Z,36.55
2023-02-05T02:21:45.828Z,36.99
2023-02-05T02:24:35.636Z,36.57
2023-02-05T02:27:12.806Z,37.15
2023-02-05T02:29:44.357Z,37.12
2023-02-05T02:32:15.601Z,36.63
2023-02-05T02:34:46.285Z,37.08
2023-02-05T02:37:16.174Z,37.15
2023-02-05T02:39:46.031Z,36.43
2023-02-05T02:42:16.512Z,37.07
2023-02-05T02:44:47.884Z,36.60
2023-02-05T02:47:17.645Z,35.79
2023-02-05T02:49:48.450Z,35.87
2023-02-05T02:52:17.801Z,36.22
2023-02-05T02:54:47.894Z,36.24
2023-02-05T02:57:17.981Z,36.33
2023-02-05T02:59:47.559Z,36.32
2023-02-05T03:02:17.024Z,37.01
2023-02-05T03:04:46.898Z,36.22
2023-02-05T03:07:17.621Z,36.87
2023-02-05T03:09:50.260Z,36.42
2023-02-05T03:12:19.714Z,36.34
2023-02-05T03:14:49.170Z,36.27
2023-02-05T03:17:19.808Z,36.25
2023-02-05T03:19:51.924Z,36.87
2023-02-05T03:22:20.300Z,36.76
2023-02-05T03:24:48.348Z,36.75
2023-02-05T03:27:16.531Z,36.78
2023-02-05T03:29:45.696Z,36.39
2023-02-05T03:32:25.902Z,36.86
2023-02-05T03:35:00.699Z,36.95
2023-02-05T03:37:34.056Z,36.99
2023-02-05T03:40:08.342Z,37.09
2023-02-05T03:42:41.238Z,36.89
2023-02-05T03:45:23.016Z,36.99
2023-02-05T03:48:05.660Z,36.58
2023-02-05T03:50:37.292Z,36.44
2023-02-05T03:53:07.908Z,36.64
2023-02-05T03:55:39.416Z,36.45
2023-02-05T03:58:09.984Z,36.34
2023-02-05T04:00:38.177Z,36.92
2023-02-05T04:03:07.653Z,37.06
2023-02-05T04:05:37.457Z,36.42
2023-02-05T04:08:06.289Z,36.48
2023-02-05T04:10:41.329Z,36.73
2023-02-05T04:13:10.518Z,35.83
2023-02-05T04:15:40.489Z,36.31
2023-02-05T04:18:12.430Z,36.41
2023-02-05T04:20:40.738Z,35.96
2023-02-05T04:23:10.414Z,36.57
2023-02-05T04:25:40.158Z,35.97
2023-02-05T04:28:11.527Z,35.96
2023-02-05T04:30:40.643Z,36.44
2023-02-05T04:33:13.160Z,36.58
2023-02-05T04:35:41.989Z,35.95
2023-02-05T04:38:10.533Z,36.05
2023-02-05T04:40:38.889Z,36.46
2023-02-05T04:43:07.217Z,36.10
2023-02-05T04:45:37.062Z,35.94
2023-02-05T04:48:06.761Z,36.00
2023-02-05T04:50:36.416Z,36.75
2023-02-05T04:53:04.643Z,36.25
2023-02-05T04:55:33.308Z,37.05
2023-02-05T04:58:01.597Z,36.29
2023-02-05T05:00:29.662Z,37.11
2023-02-05T05:02:58.253Z,36.76
2023-02-05T05:05:26.285Z,36.55
2023-02-05T05:07:55.804Z,36.81
2023-02-05T05:10:23.870Z,36.62
2023-02-05T05:12:53.231Z,37.29
2023-02-05T05:15:21.368Z,36.71
2023-02-05T05:17:49.561Z,37.14
2023-02-05T05:20:18.280Z,36.83
2023-02-05T05:22:46.377Z,37.53
2023-02-05T05:25:16.049Z,37.53
2023-02-05T05:27:44.240Z,36.86
2023-02-05T05:30:13.560Z,36.96
2023-02-05T05:32:41.674Z,36.96
2023-02-05T05:35:09.974Z,37.08
2023-02-05T05:37:38.098Z,37.09
2023-02-05T05:40:24.339Z,37.00
2023-02-05T05:43:11.136Z,37.02
2023-02-05T05:45:39.277Z,37.01
2023-02-05T05:48:09.097Z,36.97
2023-02-05T05:50:37.282Z,37.09
2023-02-05T05:53:05.421Z,37.11
2023-02-05T05:55:33.811Z,37.21
2023-02-05T05:58:03.361Z,37.29
2023-02-05T06:00:31.519Z,37.94
2023-02-05T06:02:59.688Z,37.89
2023-02-05T06:05:27.781Z,37.81
2023-02-05T06:07:55.829Z,37.83
2023-02-05T06:10:24.344Z,38.05
2023-02-05T06:12:53.156Z,37.88
2023-02-05T06:15:23.180Z,37.62
2023-02-05T06:17:51.371Z,37.33
2023-02-05T06:20:19.909Z,37.97
2023-02-05T06:22:48.262Z,37.52
2023-02-05T06:25:17.260Z,38.12
2023-02-05T06:27:48.302Z,37.81
2023-02-05T06:30:16.663Z,38.02
2023-02-05T06:32:46.531Z,37.63
2023-02-05T06:35:15.012Z,38.13
2023-02-05T06:37:47.537Z,38.19
2023-02-05T06:40:18.357Z,38.18
2023-02-05T06:42:46.833Z,38.06
2023-02-05T06:45:16.024Z,37.55
2023-02-05T06:47:46.216Z,37.59
2023-02-05T06:50:14.553Z,37.56
2023-02-05T06:52:42.677Z,37.51
2023-02-05T06:55:10.897Z,37.11
2023-02-05T06:57:39.017Z,37.66
2023-02-05T07:00:08.247Z,37.55
2023-02-05T07:02:36.421Z,36.97
2023-02-05T07:05:05.987Z,36.75
2023-02-05T07:07:34.465Z,36.49
2023-02-05T07:10:02.498Z,36.95
2023-02-05T07:12:30.718Z,36.51
2023-02-05T07:14:58.803Z,36.69
2023-02-05T07:17:27.176Z,36.96
2023-02-05T07:19:55.337Z,37.51
2023-02-05T07:22:24.897Z,37.19
2023-02-05T07:24:53.085Z,36.90
2023-02-05T07:27:21.148Z,36.80
2023-02-05T07:29:49.392Z,36.83
2023-02-05T07:32:17.620Z,37.38
2023-02-05T07:34:45.764Z,36.69
2023-02-05T07:37:14.349Z,37.11
2023-02-05T07:39:43.819Z,37.02
2023-02-05T07:42:12.339Z,36.99
2023-02-05T07:44:52.123Z,37.11
2023-02-05T07:47:20.260Z,36.71
2023-02-05T07:49:48.355Z,36.25
2023-02-05T07:52:16.413Z,36.23
2023-02-05T07:54:45.863Z,36.48
2023-02-05T07:57:13.965Z,36.94
2023-02-05T07:59:42.005Z,36.57
2023-02-05T08:02:10.728Z,36.43
2023-02-05T08:04:38.761Z,36.57
2023-02-05T08:07:06.881Z,36.59
2023-02-05T08:09:34.934Z,36.21
2023-02-05T08:12:04.602Z,35.92
2023-02-05T08:14:32.835Z,36.10
2023-02-05T08:17:01.979Z,35.40
2023-02-05T08:19:30.260Z,35.48
2023-02-05T08:21:58.847Z,35.25
2023-02-05T08:24:27.366Z,35.94
2023-02-05T08:26:55.448Z,35.19
2023-02-05T08:29:26.506Z,35.18
2023-02-05T08:31:54.815Z,35.51
2023-02-05T08:34:22.869Z,35.35
2023-02-05T08:36:50.992Z,35.41
2023-02-05T08:39:19.008Z,35.97
2023-02-05T08:41:47.121Z,35.49
2023-02-05T08:44:15.176Z,36.11
2023-02-05T08:46:50.117Z,35.70
2023-02-05T08:49:18.897Z,35.46
2023-02-05T08:51:46.948Z,35.78
2023-02-05T08:54:15.529Z,35.28
2023-02-05T08:56:43.855Z,35.54
2023-02-05T08:59:12.308Z,35.55
2023-02-05T09:01:41.598Z,35.67
2023-02-05T09:04:12.605Z,35.17
2023-02-05T09:06:43.832Z,35.62
2023-02-05T09:09:12.159Z,35.08
2023-02-05T09:11:40.513Z,35.12
2023-02-05T09:14:08.722Z,35.29
2023-02-05T09:16:36.967Z,35.64
2023-02-05T09:19:05.442Z,35.22
2023-02-05T09:21:35.102Z,35.17
2023-02-05T09:24:03.560Z,35.35
2023-02-05T09:26:31.804Z,35.32
2023-02-05T09:29:00.048Z,35.42
2023-02-05T09:31:28.632Z,34.67
2023-02-05T09:33:57.444Z,34.58
2023-02-05T09:36:27.249Z,34.49
2023-02-05T09:39:13.472Z,34.96
2023-02-05T09:41:48.471Z,35.26
2023-02-05T09:44:18.804Z,35.00
2023-02-05T09:46:50.458Z,34.98
2023-02-05T09:49:19.712Z,35.27
2023-02-05T09:51:49.497Z,35.27
2023-02-05T09:54:20.829Z,35.00
2023-02-05T09:56:50.654Z,34.88
2023-02-05T09:59:21.064Z,34.83
2023-02-05T10:01:51.231Z,34.67
2023-02-05T10:04:19.627Z,34.91
2023-02-05T10:07:01.427Z,34.56
2023-02-05T10:09:41.210Z,34.89
2023-02-05T10:12:16.087Z,34.47
2023-02-05T10:14:49.896Z,33.73
2023-02-05T10:17:29.569Z,33.68
2023-02-05T10:20:15.657Z,33.89
2023-02-05T10:22:48.751Z,34.24
2023-02-05T10:25:36.504Z,33.97
2023-02-05T10:28:07.260Z,34.01
2023-02-05T10:30:38.140Z,34.32
2023-02-05T10:33:08.338Z,33.80
2023-02-05T10:35:42.458Z,34.34
2023-02-05T10:38:12.418Z,33.82
2023-02-05T10:40:44.117Z,33.75
2023-02-05T10:43:19.071Z,33.90
2023-02-05T10:45:47.152Z,34.22
2023-02-05T10:48:25.037Z,33.64
2023-02-05T10:50:56.512Z,34.30
2023-02-05T10:53:26.319Z,33.74
2023-02-05T10:55:55.762Z,33.94
2023-02-05T10:58:42.423Z,33.95
2023-02-05T11:01:15.005Z,34.25
2023-02-05T11:03:50.551Z,34.21
2023-02-05T11:06:18.693Z,33.81
2023-02-05T11:08:47.237Z,33.86
2023-02-05T11:11:23.315Z,34.08
2023-02-05T11:13:54.053Z,33.97
2023-02-05T11:16:22.241Z,33.76
2023-02-05T11:18:57.490Z,34.41
2023-02-05T11:21:25.684Z,33.86
2023-02-05T11:23:57.265Z,33.79
2023-02-05T11:26:28.148Z,34.24
2023-02-05T11:28:56.222Z,34.31
2023-02-05T11:31:26.532Z,34.12
2023-02-05T11:34:10.582Z,33.82
2023-02-05T11:36:39.342Z,34.15
2023-02-05T11:39:07.730Z,33.71
2023-02-05T11:41:49.246Z,34.21
2023-02-05T11:44:19.425Z,33.77
2023-02-05T11:46:47.642Z,33.85
2023-02-05T11:49:21.936Z,33.75
2023-02-05T11:51:54.220Z,33.76
2023-02-05T11:54:23.500Z,34.10
2023-02-05T11:57:03.646Z,34.11
2023-02-05T11:59:31.960Z,34.45
2023-02-05T12:02:28.523Z,34.14
2023-02-05T12:04:59.008Z,33.86
2023-02-05T12:07:27.203Z,33.68
2023-02-05T12:09:59.367Z,33.81
2023-02-05T12:12:31.824Z,34.07
2023-02-05T12:15:08.594Z,34.13
2023-02-05T12:17:41.428Z,33.81
2023-02-05T12:20:17.755Z,33.59
2023-02-05T12:23:07.659Z,34.16
2023-02-05T12:25:37.927Z,33.79
2023-02-05T12:28:18.047Z,33.96
2023-02-05T12:30:52.485Z,34.03
2023-02-05T12:33:29.976Z,34.18
2023-02-05T12:36:03.155Z,33.76
2023-02-05T12:38:39.348Z,34.35
2023-02-05T12:41:13.831Z,34.42
2023-02-05T12:43:45.229Z,34.28
2023-02-05T12:46:28.832Z,34.21
2023-02-05T12:49:06.386Z,33.75
2023-02-05T12:51:44.461Z,34.33
2023-02-05T12:54:25.888Z,33.90
2023-02-05T12:56:57.223Z,34.17
2023-02-05T12:59:32.976Z,34.32
2023-02-05T13:02:02.758Z,34.08
2023-02-05T13:04:33.808Z,34.40
2023-02-05T13:07:08.521Z,34.45
2023-02-05T13:09:40.304Z,33.97
2023-02-05T13:12:09.939Z,32.86
2023-02-05T13:14:40.866Z,33.58
2023-02-05T13:17:18.547Z,34.08
2023-02-05T13:19:48.440Z,33.56
2023-02-05T13:22:35.693Z,33.83
2023-02-05T13:25:30.071Z,33.74
2023-02-05T13:28:31.399Z,33.91
2023-02-05T13:31:01.365Z,33.79
2023-02-05T13:33:29.739Z,34.24
2023-02-05T13:36:01.728Z,34.35
2023-02-05T13:38:40.106Z,33.94
2023-02-05T13:41:26.766Z,34.43
2023-02-05T13:44:20.309Z,34.33
2023-02-05T13:47:24.065Z,34.21
2023-02-05T13:50:21.985Z,34.21
2023-02-05T13:53:23.146Z,34.21
2023-02-05T13:56:18.797Z,34.14
2023-02-05T13:58:47.238Z,34.37
2023-02-05T14:01:18.025Z,34.28
2023-02-05T14:03:56.303Z,34.20
2023-02-05T14:06:31.163Z,34.41
2023-02-05T14:09:04.061Z,34.60
2023-02-05T14:11:44.754Z,34.66
2023-02-05T14:14:32.010Z,34.65
2023-02-05T14:17:00.494Z,34.38
2023-02-05T14:19:44.253Z,34.38
2023-02-05T14:22:14.388Z,34.84
2023-02-05T14:24:49.858Z,34.84
2023-02-05T14:27:47.017Z,34.37
2023-02-05T14:30:47.596Z,34.38
2023-02-05T14:33:39.186Z,34.96
2023-02-05T14:36:33.276Z,34.77
2023-02-05T14:39:04.511Z,34.69
2023-02-05T14:41:36.084Z,34.97
2023-02-05T14:44:05.025Z,34.94
2023-02-05T14:46:35.589Z,35.17
2023-02-05T14:49:05.208Z,35.38
2023-02-05T14:51:40.340Z,35.34
2023-02-05T14:54:15.795Z,34.51
2023-02-05T14:56:46.878Z,34.47
2023-02-05T14:59:21.523Z,34.44
2023-02-05T15:01:54.469Z,34.68
2023-02-05T15:04:28.628Z,34.31
2023-02-05T15:06:57.368Z,34.90
2023-02-05T15:09:38.411Z,34.33
2023-02-05T15:12:22.320Z,34.46
2023-02-05T15:14:53.828Z,34.68
2023-02-05T15:17:44.884Z,34.71
2023-02-05T15:20:20.110Z,34.63
2023-02-05T15:22:50.981Z,34.52
2023-02-05T15:25:29.630Z,34.72
2023-02-05T15:27:59.207Z,34.88
2023-02-05T15:30:28.889Z,34.63
2023-02-05T15:33:00.396Z,35.07
2023-02-05T15:35:29.996Z,34.63
2023-02-05T15:37:59.996Z,34.73
2023-02-05T15:40:31.687Z,34.79
2023-02-05T15:43:01.241Z,34.75
2023-02-05T15:45:30.335Z,34.50
2023-02-05T15:48:00.384Z,34.84
2023-02-05T15:50:28.675Z,34.35
2023-02-05T15:52:57.073Z,35.14
2023-02-05T15:55:26.887Z,34.44
2023-02-05T15:57:57.587Z,34.88
2023-02-05T16:00:28.048Z,34.29
2023-02-05T16:02:57.512Z,34.66
2023-02-05T16:05:26.399Z,34.43
2023-02-05T16:07:58.265Z,34.79
2023-02-05T16:10:27.559Z,34.48
2023-02-05T16:13:01.247Z,34.89
2023-02-05T16:15:31.822Z,34.73
2023-02-05T16:18:00.039Z,33.97
2023-02-05T16:20:29.219Z,34.81
2023-02-05T16:22:58.205Z,34.18
2023-02-05T16:25:38.812Z,34.11
2023-02-05T16:28:19.308Z,34.42
2023-02-05T16:30:47.769Z,34.45
2023-02-05T16:33:22.314Z,33.92
2023-02-05T16:35:50.668Z,34.01
2023-02-05T16:38:20.009Z,34.23
2023-02-05T16:40:49.669Z,33.65
2023-02-05T16:43:21.900Z,33.76
2023-02-05T16:46:21.836Z,34.06
2023-02-05T16:48:51.075Z,34.48
2023-02-05T16:51:31.813Z,33.92
2023-02-05T16:54:00.846Z,34.25
2023-02-05T16:56:29.961Z,34.21
2023-02-05T16:59:02.625Z,34.23
2023-02-05T17:01:32.684Z,33.77
2023-02-05T17:04:00.886Z,33.60
2023-02-05T17:06:33.737Z,33.95
2023-02-05T17:09:01.954Z,33.84
2023-02-05T17:11:35.387Z,33.60
2023-02-05T17:14:23.408Z,34.28
2023-02-05T17:16:55.645Z,33.99
2023-02-05T17:19:25.215Z,33.96
2023-02-05T17:22:23.280Z,34.05
2023-02-05T17:24:52.106Z,34.33
2023-02-05T17:27:23.336Z,34.21
2023-02-05T17:29:54.304Z,34.28
2023-02-05T17:32:22.747Z,34.01
2023-02-05T17:34:51.025Z,34.39
2023-02-05T17:37:19.481Z,34.06
2023-02-05T17:39:47.722Z,33.81
2023-02-05T17:42:22.838Z,33.90
2023-02-05T17:44:53.264Z,34.16
2023-02-05T17:47:21.476Z,33.65
2023-02-05T17:49:49.712Z,34.12
2023-02-05T17:52:18.223Z,33.67
2023-02-05T17:54:46.625Z,33.63
2023-02-05T17:57:17.216Z,34.12
2023-02-05T17:59:48.262Z,34.19
2023-02-05T18:02:18.105Z,33.96
2023-02-05T18:04:47.006Z,33.18
2023-02-05T18:07:19.934Z,33.00
2023-02-05T18:09:48.120Z,33.17
2023-02-05T18:12:16.310Z,33.28
2023-02-05T18:14:44.480Z,33.32
2023-02-05T18:17:12.649Z,33.96
2023-02-05T18:19:42.304Z,33.15
2023-02-05T18:22:10.629Z,33.23
2023-02-05T18:24:39.307Z,33.64
2023-02-05T18:27:08.685Z,33.58
2023-02-05T18:29:36.986Z,33.52
2023-02-05T18:32:05.127Z,33.90
2023-02-05T18:34:33.378Z,33.73
2023-02-05T18:37:02.983Z,33.97
2023-02-05T18:39:31.560Z,33.74
2023-02-05T18:42:00.157Z,34.10
2023-02-05T18:44:28.691Z,34.41
2023-02-05T18:46:56.813Z,33.85
2023-02-05T18:49:25.060Z,33.47
2023-02-05T18:51:53.258Z,32.70
2023-02-05T18:54:22.776Z,33.17
2023-02-05T18:56:51.885Z,33.29
2023-02-05T18:59:21.308Z,32.85
2023-02-05T19:01:49.601Z,33.30
2023-02-05T19:04:18.706Z,33.43
2023-02-05T19:06:50.713Z,33.20
2023-02-05T19:09:19.566Z,33.56
2023-02-05T19:11:49.625Z,33.55
2023-02-05T19:14:18.948Z,33.03
2023-02-05T19:16:47.331Z,33.08
2023-02-05T19:19:16.371Z,33.27
2023-02-05T19:21:45.101Z,32.93
2023-02-05T19:24:14.386Z,33.25
2023-02-05T19:26:43.589Z,33.04
2023-02-05T19:29:15.505Z,33.08
2023-02-05T19:31:43.957Z,33.33
2023-02-05T19:34:12.183Z,33.85
2023-02-05T19:36:40.474Z,33.75
2023-02-05T19:39:10.056Z,33.53
2023-02-05T19:41:38.377Z,33.47
2023-02-05T19:44:07.717Z,33.57
2023-02-05T19:46:38.333Z,34.03
2023-02-05T19:49:07.376Z,33.53
2023-02-05T19:51:35.516Z,33.47
2023-02-05T19:54:04.294Z,33.61
2023-02-05T19:56:35.737Z,33.50
2023-02-05T19:59:04.118Z,33.67
2023-02-05T20:01:33.581Z,33.85
2023-02-05T20:04:08.071Z,33.71
2023-02-05T20:06:36.352Z,33.76
2023-02-05T20:09:05.879Z,33.59
2023-02-05T20:11:34.037Z,33.54
2023-02-05T20:14:02.251Z,33.35
2023-02-05T20:16:30.592Z,33.91
2023-02-05T20:18:59.724Z,33.91
2023-02-05T20:21:30.005Z,33.95
2023-02-05T20:23:58.264Z,33.33
2023-02-05T20:26:26.620Z,34.01
2023-02-05T20:29:13.132Z,33.91
2023-02-05T20:31:43.560Z,33.22
2023-02-05T20:34:18.184Z,33.71
2023-02-05T20:36:48.425Z,33.92
2023-02-05T20:39:18.035Z,33.66
2023-02-05T20:41:46.497Z,33.46
2023-02-05T20:44:14.617Z,33.61
2023-02-05T20:46:42.892Z,33.48
2023-02-05T20:49:11.052Z,33.58
2023-02-05T20:51:39.330Z,33.40
2023-02-05T20:54:09.337Z,33.04
2023-02-05T20:56:37.604Z,33.22
2023-02-05T20:59:07.134Z,33.39
2023-02-05T21:01:36.563Z,33.13
2023-02-05T21:04:05.416Z,32.98
2023-02-05T21:06:35.136Z,33.00
2023-02-05T21:09:03.494Z,33.69
2023-02-05T21:11:33.108Z,33.10
2023-02-05T21:14:03.467Z,33.68
2023-02-05T21:16:32.299Z,33.50
2023-02-05T21:19:00.490Z,33.25
2023-02-05T21:21:29.964Z,33.82
2023-02-05T21:23:59.130Z,33.41
2023-02-05T21:26:28.169Z,33.78
2023-02-05T21:28:58.904Z,33.17
2023-02-05T21:31:33.756Z,33.25
2023-02-05T21:34:02.283Z,33.92
2023-02-05T21:36:30.609Z,33.42
2023-02-05T21:38:58.825Z,33.00
2023-02-05T21:41:26.968Z,33.30
2023-02-05T21:43:57.558Z,32.98
2023-02-05T21:46:26.268Z,33.18
2023-02-05T21:48:55.936Z,33.05
2023-02-05T21:51:26.596Z,32.86
2023-02-05T21:53:57.319Z,33.48
2023-02-05T21:56:25.985Z,33.45
2023-02-05T21:58:54.254Z,33.77
2023-02-05T22:01:24.628Z,33.06
2023-02-05T22:03:53.837Z,33.62
2023-02-05T22:06:23.057Z,33.50
2023-02-05T22:08:51.414Z,33.14
2023-02-05T22:11:20.150Z,33.09
2023-02-05T22:13:49.361Z,33.39
2023-02-05T22:16:18.572Z,33.10
2023-02-05T22:18:48.249Z,33.57
2023-02-05T22:21:17.890Z,33.36
2023-02-05T22:23:48.991Z,33.76
2023-02-05T22:26:17.811Z,33.37
2023-02-05T22:28:46.265Z,33.55
2023-02-05T22:31:15.931Z,33.55
2023-02-05T22:33:45.154Z,33.71
2023-02-05T22:36:19.083Z,33.89
2023-02-05T22:38:47.437Z,33.91
2023-02-05T22:41:16.812Z,33.48
2023-02-05T22:43:44.996Z,33.45
2023-02-05T22:46:14.272Z,33.68
2023-02-05T22:48:43.280Z,33.52
2023-02-05T22:51:13.109Z,33.46
2023-02-05T22:53:42.779Z,33.33
2023-02-05T22:56:12.802Z,32.93
2023-02-05T22:58:42.096Z,32.80
2023-02-05T23:01:10.650Z,32.63
2023-02-05T23:03:39.165Z,33.05
2023-02-05T23:06:11.485Z,32.75
2023-02-05T23:08:39.806Z,33.19
2023-02-05T23:11:10.708Z,33.17
2023-02-05T23:13:38.908Z,33.46
2023-02-05T23:16:08.837Z,33.27
2023-02-05T23:18:37.237Z,33.51
2023-02-05T23:21:08.629Z,33.33
2023-02-05T23:23:36.865Z,33.49
2023-02-05T23:26:11.105Z,33.55
2023-02-05T23:28:39.444Z,33.12
2023-02-05T23:31:07.875Z,33.28
2023-02-05T23:33:36.253Z,33.42
2023-02-05T23:36:05.054Z,33.51
2023-02-05T23:38:33.246Z,33.21
2023-02-05T23:41:01.553Z,33.64
2023-02-05T23:43:32.603Z,33.88
2023-02-05T23:46:00.966Z,33.85
2023-02-05T23:48:29.226Z,33.77
2023-02-05T23:50:59.051Z,33.32
2023-02-05T23:53:27.404Z,33.81
2023-02-05T23:55:55.699Z,33.31
2023-02-05T23:58:26.150Z,33.58
